sensor_id;sensor_type;location;lat;lon;timestamp;pressure;altitude;pressure_sealevel;temperature;humidity
44765;BME280;30484;52.382;5.260;2023-03-16T00:01:03;101839.94;;;8.84;100.00
44765;BME280;30484;52.382;5.260;2023-03-16T00:03:32;101844.22;;;8.55;100.00
44765;BME280;30484;52.382;5.260;2023-03-16T00:06:00;101839.22;;;8.77;100.00
44765;BME280;30484;52.382;5.260;2023-03-16T00:08:29;101833.50;;;8.58;100.00
44765;BME280;30484;52.382;5.260;2023-03-16T00:10:57;101829.59;;;9.04;100.00
44765;BME280;30484;52.382;5.260;2023-03-16T00:13:28;101820.84;;;8.66;100.00
44765;BME280;30484;52.382;5.260;2023-03-16T00:15:58;101813.56;;;8.38;100.00
44765;BME280;30484;52.382;5.260;2023-03-16T00:18:29;101806.00;;;8.90;100.00
44765;BME280;30484;52.382;5.260;2023-03-16T00:21:04;101808.38;;;8.68;100.00
44765;BME280;30484;52.382;5.260;2023-03-16T00:23:34;101796.56;;;8.78;100.00
44765;BME280;30484;52.382;5.260;2023-03-16T00:26:05;101792.13;;;8.77;100.00
44765;BME280;30484;52.382;5.260;2023-03-16T00:28:35;101802.78;;;8.77;100.00
44765;BME280;30484;52.382;5.260;2023-03-16T00:31:06;101791.50;;;8.68;100.00
44765;BME280;30484;52.382;5.260;2023-03-16T00:33:38;101779.72;;;8.76;100.00
44765;BME280;30484;52.382;5.260;2023-03-16T00:36:07;101784.38;;;9.01;100.00
44765;BME280;30484;52.382;5.260;2023-03-16T00:38:40;101792.22;;;8.40;100.00
44765;BME280;30484;52.382;5.260;2023-03-16T00:41:12;101791.03;;;8.52;100.00
44765;BME280;30484;52.382;5.260;2023-03-16T00:43:43;101805.13;;;8.90;100.00
44765;BME280;30484;52.382;5.260;2023-03-16T00:46:14;101797.06;;;8.24;100.00
44765;BME280;30484;52.382;5.260;2023-03-16T00:48:45;101795.66;;;8.79;100.00
44765;BME280;30484;52.382;5.260;2023-03-16T00:51:16;101793.91;;;9.10;100.00
44765;BME280;30484;52.382;5.260;2023-03-16T00:53:45;101782.94;;;8.89;100.00
44765;BME280;30484;52.382;5.260;2023-03-16T00:56:14;101793.44;;;8.62;100.00
44765;BME280;30484;52.382;5.260;2023-03-16T00:58:45;101772.25;;;8.91;100.00
44765;BME280;30484;52.382;5.260;2023-03-16T01:01:16;101768.56;;;8.62;100.00
44765;BME280;30484;52.382;5.260;2023-03-16T01:03:45;101756.19;;;8.92;100.00
44765;BME280;30484;52.382;5.260;2023-03-16T01:06:16;101768.38;;;9.01;100.00
44765;BME280;30484;52.382;5.260;2023-03-16T01:08:46;101746.34;;;8.94;100.00
44765;BME280;30484;52.382;5.260;2023-03-16T01:11:17;101752.84;;;9.15;100.00
44765;BME280;30484;52.382;5.260;2023-03-16T01:13:49;101750.63;;;8.69;100.00
44765;BME280;30484;52.382;5.260;2023-03-16T01:16:20;101761.28;;;8.69;100.00
44765;BME280;30484;52.382;5.260;2023-03-16T01:18:51;101753.97;;;8.77;100.00
44765;BME280;30484;52.382;5.260;2023-03-16T01:21:20;101747.66;;;9.11;100.00
44765;BME280;30484;52.382;5.260;2023-03-16T01:23:49;101752.81;;;9.17;100.00
44765;BME280;30484;52.382;5.260;2023-03-16T01:26:20;101736.53;;;8.96;100.00
44765;BME280;30484;52.382;5.260;2023-03-16T01:28:50;101731.31;;;8.92;100.00
44765;BME280;30484;52.382;5.260;2023-03-16T01:31:18;101728.50;;;8.98;100.00
44765;BME280;30484;52.382;5.260;2023-03-16T01:33:47;101723.75;;;8.43;100.00
44765;BME280;30484;52.382;5.260;2023-03-16T01:36:18;101723.84;;;8.40;100.00
44765;BME280;30484;52.382;5.260;2023-03-16T01:38:47;101726.09;;;8.57;100.00
44765;BME280;30484;52.382;5.260;2023-03-16T01:41:15;101714.13;;;8.72;100.00
44765;BME280;30484;52.382;5.260;2023-03-16T01:43:44;101702.69;;;9.57;100.00
44765;BME280;30484;52.382;5.260;2023-03-16T01:46:19;101698.34;;;8.64;100.00
44765;BME280;30484;52.382;5.260;2023-03-16T01:48:57;101712.19;;;8.77;100.00
44765;BME280;30484;52.382;5.260;2023-03-16T01:51:31;101706.31;;;8.96;100.00
44765;BME280;30484;52.382;5.260;2023-03-16T01:54:06;101705.16;;;8.75;100.00
44765;BME280;30484;52.382;5.260;2023-03-16T01:56:41;101703.81;;;8.60;100.00
44765;BME280;30484;52.382;5.260;2023-03-16T01:59:13;101693.66;;;9.04;100.00
44765;BME280;30484;52.382;5.260;2023-03-16T02:01:45;101696.50;;;8.98;100.00
44765;BME280;30484;52.382;5.260;2023-03-16T02:04:25;101689.06;;;9.38;100.00
44765;BME280;30484;52.382;5.260;2023-03-16T02:06:56;101687.34;;;9.07;100.00
44765;BME280;30484;52.382;5.260;2023-03-16T02:09:27;101678.84;;;8.64;100.00
44765;BME280;30484;52.382;5.260;2023-03-16T02:11:57;101693.47;;;9.10;100.00
44765;BME280;30484;52.382;5.260;2023-03-16T02:14:27;101685.69;;;9.03;100.00
44765;BME280;30484;52.382;5.260;2023-03-16T02:16:57;101692.88;;;8.36;100.00
44765;BME280;30484;52.382;5.260;2023-03-16T02:19:36;101679.47;;;8.41;100.00
44765;BME280;30484;52.382;5.260;2023-03-16T02:22:07;101668.94;;;8.36;100.00
44765;BME280;30484;52.382;5.260;2023-03-16T02:24:36;101681.13;;;8.76;100.00
44765;BME280;30484;52.382;5.260;2023-03-16T02:27:08;101672.13;;;8.80;100.00
44765;BME280;30484;52.382;5.260;2023-03-16T02:29:57;101660.28;;;8.61;100.00
44765;BME280;30484;52.382;5.260;2023-03-16T02:32:30;101676.00;;;8.37;100.00
44765;BME280;30484;52.382;5.260;2023-03-16T02:35:00;101665.91;;;8.81;100.00
44765;BME280;30484;52.382;5.260;2023-03-16T02:37:29;101659.59;;;8.84;100.00
44765;BME280;30484;52.382;5.260;2023-03-16T02:40:00;101653.59;;;8.77;100.00
44765;BME280;30484;52.382;5.260;2023-03-16T02:42:32;101663.50;;;8.39;100.00
44765;BME280;30484;52.382;5.260;2023-03-16T02:45:02;101653.56;;;8.48;100.00
44765;BME280;30484;52.382;5.260;2023-03-16T02:47:34;101650.91;;;8.77;100.00
44765;BME280;30484;52.382;5.260;2023-03-16T02:50:05;101650.91;;;8.48;100.00
44765;BME280;30484;52.382;5.260;2023-03-16T02:52:33;101649.03;;;8.18;100.00
44765;BME280;30484;52.382;5.260;2023-03-16T02:55:02;101658.13;;;8.42;100.00
44765;BME280;30484;52.382;5.260;2023-03-16T02:57:31;101650.91;;;8.48;100.00
44765;BME280;30484;52.382;5.260;2023-03-16T03:00:00;101657.09;;;8.79;100.00
44765;BME280;30484;52.382;5.260;2023-03-16T03:02:32;101652.75;;;8.45;100.00
44765;BME280;30484;52.382;5.260;2023-03-16T03:05:00;101655.59;;;8.69;100.00
44765;BME280;30484;52.382;5.260;2023-03-16T03:07:29;101647.59;;;8.69;100.00
44765;BME280;30484;52.382;5.260;2023-03-16T03:09:58;101646.94;;;8.62;100.00
44765;BME280;30484;52.382;5.260;2023-03-16T03:12:29;101648.31;;;8.76;100.00
44765;BME280;30484;52.382;5.260;2023-03-16T03:14:57;101638.19;;;8.57;100.00
44765;BME280;30484;52.382;5.260;2023-03-16T03:17:27;101632.53;;;8.98;100.00
44765;BME280;30484;52.382;5.260;2023-03-16T03:19:58;101629.50;;;8.80;100.00
44765;BME280;30484;52.382;5.260;2023-03-16T03:22:28;101622.13;;;8.27;100.00
44765;BME280;30484;52.382;5.260;2023-03-16T03:24:57;101631.00;;;8.61;100.00
44765;BME280;30484;52.382;5.260;2023-03-16T03:27:25;101625.28;;;8.73;100.00
44765;BME280;30484;52.382;5.260;2023-03-16T03:29:53;101623.56;;;8.41;100.00
44765;BME280;30484;52.382;5.260;2023-03-16T03:32:22;101631.44;;;8.45;100.00
44765;BME280;30484;52.382;5.260;2023-03-16T03:34:52;101631.75;;;8.33;100.00
44765;BME280;30484;52.382;5.260;2023-03-16T03:37:20;101631.75;;;8.64;100.00
44765;BME280;30484;52.382;5.260;2023-03-16T03:39:49;101638.03;;;8.92;100.00
44765;BME280;30484;52.382;5.260;2023-03-16T03:42:19;101618.53;;;8.30;100.00
44765;BME280;30484;52.382;5.260;2023-03-16T03:44:49;101623.47;;;8.75;100.00
44765;BME280;30484;52.382;5.260;2023-03-16T03:47:18;101620.47;;;9.14;100.00
44765;BME280;30484;52.382;5.260;2023-03-16T03:49:47;101627.69;;;8.20;100.00
44765;BME280;30484;52.382;5.260;2023-03-16T03:52:16;101607.59;;;8.39;100.00
44765;BME280;30484;52.382;5.260;2023-03-16T03:54:45;101610.44;;;8.33;100.00
44765;BME280;30484;52.382;5.260;2023-03-16T03:57:13;101613.47;;;8.82;100.00
44765;BME280;30484;52.382;5.260;2023-03-16T03:59:42;101614.00;;;8.65;100.00
44765;BME280;30484;52.382;5.260;2023-03-16T04:02:11;101606.06;;;8.92;100.00
44765;BME280;30484;52.382;5.260;2023-03-16T04:04:41;101599.88;;;8.61;100.00
44765;BME280;30484;52.382;5.260;2023-03-16T04:07:11;101609.84;;;8.55;100.00
44765;BME280;30484;52.382;5.260;2023-03-16T04:09:41;101601.22;;;8.46;100.00
44765;BME280;30484;52.382;5.260;2023-03-16T04:12:10;101589.16;;;8.33;100.00
44765;BME280;30484;52.382;5.260;2023-03-16T04:14:39;101591.41;;;8.16;100.00
44765;BME280;30484;52.382;5.260;2023-03-16T04:17:07;101595.91;;;8.46;100.00
44765;BME280;30484;52.382;5.260;2023-03-16T04:19:36;101597.88;;;8.38;100.00
44765;BME280;30484;52.382;5.260;2023-03-16T04:22:04;101587.41;;;8.92;100.00
44765;BME280;30484;52.382;5.260;2023-03-16T04:24:33;101591.16;;;8.25;100.00
44765;BME280;30484;52.382;5.260;2023-03-16T04:27:03;101583.84;;;8.93;100.00
44765;BME280;30484;52.382;5.260;2023-03-16T04:29:32;101584.50;;;8.71;100.00
44765;BME280;30484;52.382;5.260;2023-03-16T04:32:04;101574.09;;;8.92;100.00
44765;BME280;30484;52.382;5.260;2023-03-16T04:34:32;101576.31;;;8.48;100.00
44765;BME280;30484;52.382;5.260;2023-03-16T04:37:01;101571.78;;;8.51;100.00
44765;BME280;30484;52.382;5.260;2023-03-16T04:39:30;101569.50;;;8.06;100.00
44765;BME280;30484;52.382;5.260;2023-03-16T04:41:58;101577.97;;;8.20;100.00
44765;BME280;30484;52.382;5.260;2023-03-16T04:44:29;101562.59;;;8.61;100.00
44765;BME280;30484;52.382;5.260;2023-03-16T04:46:57;101575.22;;;7.92;100.00
44765;BME280;30484;52.382;5.260;2023-03-16T04:49:26;101576.84;;;8.29;100.00
44765;BME280;30484;52.382;5.260;2023-03-16T04:51:54;101577.00;;;8.84;100.00
44765;BME280;30484;52.382;5.260;2023-03-16T04:54:23;101577.84;;;8.25;100.00
44765;BME280;30484;52.382;5.260;2023-03-16T04:56:52;101583.91;;;8.61;100.00
44765;BME280;30484;52.382;5.260;2023-03-16T04:59:20;101577.03;;;8.23;100.00
44765;BME280;30484;52.382;5.260;2023-03-16T05:01:50;101569.19;;;8.50;100.00
44765;BME280;30484;52.382;5.260;2023-03-16T05:04:19;101578.19;;;8.44;100.00
44765;BME280;30484;52.382;5.260;2023-03-16T05:06:50;101572.69;;;8.19;100.00
44765;BME280;30484;52.382;5.260;2023-03-16T05:09:19;101571.78;;;8.51;100.00
44765;BME280;30484;52.382;5.260;2023-03-16T05:11:47;101568.47;;;8.11;100.00
44765;BME280;30484;52.382;5.260;2023-03-16T05:14:16;101584.78;;;7.99;100.00
44765;BME280;30484;52.382;5.260;2023-03-16T05:16:44;101577.22;;;8.48;100.00
44765;BME280;30484;52.382;5.260;2023-03-16T05:19:14;101575.56;;;8.42;100.00
44765;BME280;30484;52.382;5.260;2023-03-16T05:21:43;101569.28;;;8.75;100.00
44765;BME280;30484;52.382;5.260;2023-03-16T05:24:12;101577.72;;;8.61;100.00
44765;BME280;30484;52.382;5.260;2023-03-16T05:26:44;101558.81;;;8.69;100.00
44765;BME280;30484;52.382;5.260;2023-03-16T05:29:12;101565.53;;;8.52;100.00
44765;BME280;30484;52.382;5.260;2023-03-16T05:31:41;101563.00;;;8.48;100.00
44765;BME280;30484;52.382;5.260;2023-03-16T05:34:14;101552.72;;;8.93;100.00
44765;BME280;30484;52.382;5.260;2023-03-16T05:36:42;101551.75;;;8.68;100.00
44765;BME280;30484;52.382;5.260;2023-03-16T05:39:12;101536.78;;;8.02;100.00
44765;BME280;30484;52.382;5.260;2023-03-16T05:41:41;101530.69;;;8.60;100.00
44765;BME280;30484;52.382;5.260;2023-03-16T05:44:09;101532.91;;;8.44;100.00
44765;BME280;30484;52.382;5.260;2023-03-16T05:46:38;101532.78;;;8.78;100.00
44765;BME280;30484;52.382;5.260;2023-03-16T05:49:06;101520.81;;;8.32;100.00
44765;BME280;30484;52.382;5.260;2023-03-16T05:51:36;101539.06;;;7.85;100.00
44765;BME280;30484;52.382;5.260;2023-03-16T05:54:05;101535.69;;;8.39;100.00
44765;BME280;30484;52.382;5.260;2023-03-16T05:56:33;101520.06;;;8.28;100.00
44765;BME280;30484;52.382;5.260;2023-03-16T05:59:02;101535.38;;;8.20;100.00
44765;BME280;30484;52.382;5.260;2023-03-16T06:01:30;101533.16;;;8.66;100.00
44765;BME280;30484;52.382;5.260;2023-03-16T06:04:00;101528.34;;;8.77;100.00
44765;BME280;30484;52.382;5.260;2023-03-16T06:06:29;101538.97;;;8.19;100.00
44765;BME280;30484;52.382;5.260;2023-03-16T06:08:59;101534.00;;;8.07;100.00
44765;BME280;30484;52.382;5.260;2023-03-16T06:11:27;101525.22;;;8.64;100.00
44765;BME280;30484;52.382;5.260;2023-03-16T06:13:59;101532.88;;;8.16;100.00
44765;BME280;30484;52.382;5.260;2023-03-16T06:16:28;101538.44;;;8.06;100.00
44765;BME280;30484;52.382;5.260;2023-03-16T06:18:57;101525.16;;;8.36;100.00
44765;BME280;30484;52.382;5.260;2023-03-16T06:21:26;101521.72;;;8.33;100.00
44765;BME280;30484;52.382;5.260;2023-03-16T06:23:54;101523.59;;;8.29;100.00
44765;BME280;30484;52.382;5.260;2023-03-16T06:26:24;101530.91;;;8.21;100.00
44765;BME280;30484;52.382;5.260;2023-03-16T06:28:53;101526.66;;;7.84;100.00
44765;BME280;30484;52.382;5.260;2023-03-16T06:31:21;101525.06;;;8.09;100.00
44765;BME280;30484;52.382;5.260;2023-03-16T06:33:49;101519.72;;;8.39;100.00
44765;BME280;30484;52.382;5.260;2023-03-16T06:36:18;101525.53;;;8.24;100.00
44765;BME280;30484;52.382;5.260;2023-03-16T06:38:47;101523.94;;;7.87;100.00
44765;BME280;30484;52.382;5.260;2023-03-16T06:41:16;101525.94;;;8.10;100.00
44765;BME280;30484;52.382;5.260;2023-03-16T06:43:46;101518.63;;;7.87;100.00
44765;BME280;30484;52.382;5.260;2023-03-16T06:46:14;101525.19;;;8.05;100.00
44765;BME280;30484;52.382;5.260;2023-03-16T06:48:43;101518.50;;;7.58;100.00
44765;BME280;30484;52.382;5.260;2023-03-16T06:51:13;101506.06;;;8.52;100.00
44765;BME280;30484;52.382;5.260;2023-03-16T06:53:42;101499.78;;;8.24;100.00
44765;BME280;30484;52.382;5.260;2023-03-16T06:56:11;101500.41;;;8.91;100.00
44765;BME280;30484;52.382;5.260;2023-03-16T06:58:40;101503.13;;;8.89;100.00
44765;BME280;30484;52.382;5.260;2023-03-16T07:01:10;101510.28;;;8.59;100.00
44765;BME280;30484;52.382;5.260;2023-03-16T07:03:39;101495.06;;;8.34;100.00
44765;BME280;30484;52.382;5.260;2023-03-16T07:06:07;101503.84;;;8.06;100.00
44765;BME280;30484;52.382;5.260;2023-03-16T07:08:36;101496.69;;;8.95;100.00
44765;BME280;30484;52.382;5.260;2023-03-16T07:11:05;101485.31;;;8.63;100.00
44765;BME280;30484;52.382;5.260;2023-03-16T07:13:33;101500.09;;;9.00;100.00
44765;BME280;30484;52.382;5.260;2023-03-16T07:16:03;101495.16;;;8.88;100.00
44765;BME280;30484;52.382;5.260;2023-03-16T07:18:33;101493.63;;;9.07;100.00
44765;BME280;30484;52.382;5.260;2023-03-16T07:21:04;101491.38;;;8.38;100.00
44765;BME280;30484;52.382;5.260;2023-03-16T07:23:32;101490.34;;;9.26;100.00
44765;BME280;30484;52.382;5.260;2023-03-16T07:26:01;101488.41;;;8.77;100.00
44765;BME280;30484;52.382;5.260;2023-03-16T07:28:34;101495.13;;;9.16;100.00
44765;BME280;30484;52.382;5.260;2023-03-16T07:31:03;101498.66;;;8.90;100.00
44765;BME280;30484;52.382;5.260;2023-03-16T07:33:34;101506.94;;;8.80;100.00
44765;BME280;30484;52.382;5.260;2023-03-16T07:36:03;101500.00;;;8.75;100.00
44765;BME280;30484;52.382;5.260;2023-03-16T07:38:32;101496.06;;;8.88;100.00
44765;BME280;30484;52.382;5.260;2023-03-16T07:41:00;101498.34;;;9.26;100.00
44765;BME280;30484;52.382;5.260;2023-03-16T07:43:29;101501.13;;;9.23;100.00
44765;BME280;30484;52.382;5.260;2023-03-16T07:45:57;101483.66;;;9.14;100.00
44765;BME280;30484;52.382;5.260;2023-03-16T07:48:27;101504.69;;;9.22;100.00
44765;BME280;30484;52.382;5.260;2023-03-16T07:50:58;101499.13;;;9.03;100.00
44765;BME280;30484;52.382;5.260;2023-03-16T07:53:26;101508.34;;;8.92;100.00
44765;BME280;30484;52.382;5.260;2023-03-16T07:55:55;101508.47;;;8.61;100.00
44765;BME280;30484;52.382;5.260;2023-03-16T07:58:24;101494.56;;;9.06;100.00
44765;BME280;30484;52.382;5.260;2023-03-16T08:00:55;101489.41;;;8.73;100.00
44765;BME280;30484;52.382;5.260;2023-03-16T08:03:24;101497.50;;;9.50;100.00
44765;BME280;30484;52.382;5.260;2023-03-16T08:05:53;101495.53;;;8.77;100.00
44765;BME280;30484;52.382;5.260;2023-03-16T08:08:24;101493.75;;;9.31;100.00
44765;BME280;30484;52.382;5.260;2023-03-16T08:10:52;101492.84;;;9.05;100.00
44765;BME280;30484;52.382;5.260;2023-03-16T08:13:23;101492.09;;;9.27;100.00
44765;BME280;30484;52.382;5.260;2023-03-16T08:15:53;101489.44;;;9.52;100.00
44765;BME280;30484;52.382;5.260;2023-03-16T08:18:25;101480.09;;;9.13;100.00
44765;BME280;30484;52.382;5.260;2023-03-16T08:20:53;101473.09;;;9.87;100.00
44765;BME280;30484;52.382;5.260;2023-03-16T08:23:24;101469.84;;;9.53;100.00
44765;BME280;30484;52.382;5.260;2023-03-16T08:25:54;101474.38;;;9.51;100.00
44765;BME280;30484;52.382;5.260;2023-03-16T08:28:24;101473.38;;;9.54;100.00
44765;BME280;30484;52.382;5.260;2023-03-16T08:30:53;101490.13;;;9.57;100.00
44765;BME280;30484;52.382;5.260;2023-03-16T08:33:24;101480.59;;;9.75;100.00
44765;BME280;30484;52.382;5.260;2023-03-16T08:35:54;101472.44;;;9.80;100.00
44765;BME280;30484;52.382;5.260;2023-03-16T08:38:24;101475.69;;;9.38;100.00
44765;BME280;30484;52.382;5.260;2023-03-16T08:40:53;101476.72;;;9.35;100.00
44765;BME280;30484;52.382;5.260;2023-03-16T08:43:23;101488.56;;;9.52;100.00
44765;BME280;30484;52.382;5.260;2023-03-16T08:45:53;101480.56;;;9.52;100.00
44765;BME280;30484;52.382;5.260;2023-03-16T08:48:21;101481.38;;;10.02;100.00
44765;BME280;30484;52.382;5.260;2023-03-16T08:50:50;101478.53;;;9.83;100.00
44765;BME280;30484;52.382;5.260;2023-03-16T08:53:20;101492.84;;;10.05;100.00
44765;BME280;30484;52.382;5.260;2023-03-16T08:55:50;101473.06;;;10.10;100.00
44765;BME280;30484;52.382;5.260;2023-03-16T08:58:18;101464.00;;;9.67;100.00
44765;BME280;30484;52.382;5.260;2023-03-16T09:00:47;101467.97;;;10.28;100.00
44765;BME280;30484;52.382;5.260;2023-03-16T09:03:16;101470.94;;;9.96;100.00
44765;BME280;30484;52.382;5.260;2023-03-16T09:05:46;101465.63;;;9.71;100.00
44765;BME280;30484;52.382;5.260;2023-03-16T09:08:15;101462.91;;;10.20;100.00
44765;BME280;30484;52.382;5.260;2023-03-16T09:10:44;101462.91;;;10.20;100.00
44765;BME280;30484;52.382;5.260;2023-03-16T09:13:14;101453.91;;;10.68;100.00
44765;BME280;30484;52.382;5.260;2023-03-16T09:15:42;101454.97;;;10.18;100.00
44765;BME280;30484;52.382;5.260;2023-03-16T09:18:11;101464.53;;;10.70;100.00
44765;BME280;30484;52.382;5.260;2023-03-16T09:20:39;101451.09;;;10.94;100.00
44765;BME280;30484;52.382;5.260;2023-03-16T09:23:08;101453.72;;;10.73;100.00
44765;BME280;30484;52.382;5.260;2023-03-16T09:25:37;101456.78;;;10.84;100.00
44765;BME280;30484;52.382;5.260;2023-03-16T09:28:06;101453.44;;;10.11;100.00
44765;BME280;30484;52.382;5.260;2023-03-16T09:30:36;101444.19;;;10.66;100.00
44765;BME280;30484;52.382;5.260;2023-03-16T09:33:04;101446.31;;;10.35;100.00
44765;BME280;30484;52.382;5.260;2023-03-16T09:35:33;101449.59;;;10.86;100.00
44765;BME280;30484;52.382;5.260;2023-03-16T09:38:03;101455.75;;;10.44;100.00
44765;BME280;30484;52.382;5.260;2023-03-16T09:40:33;101448.38;;;10.73;100.00
44765;BME280;30484;52.382;5.260;2023-03-16T09:43:35;101444.47;;;11.02;100.00
44765;BME280;30484;52.382;5.260;2023-03-16T09:46:14;101430.41;;;10.97;100.00
44765;BME280;30484;52.382;5.260;2023-03-16T09:48:48;101445.09;;;10.66;100.00
44765;BME280;30484;52.382;5.260;2023-03-16T09:51:22;101442.16;;;11.15;100.00
44765;BME280;30484;52.382;5.260;2023-03-16T09:54:00;101430.72;;;10.69;100.00
44765;BME280;30484;52.382;5.260;2023-03-16T09:56:34;101435.16;;;11.52;100.00
44765;BME280;30484;52.382;5.260;2023-03-16T09:59:10;101431.56;;;11.53;100.00
44765;BME280;30484;52.382;5.260;2023-03-16T10:01:51;101437.19;;;11.27;100.00
44765;BME280;30484;52.382;5.260;2023-03-16T10:04:36;101427.44;;;11.46;100.00
44765;BME280;30484;52.382;5.260;2023-03-16T10:07:24;101446.06;;;11.68;100.00
44765;BME280;30484;52.382;5.260;2023-03-16T10:10:00;101427.13;;;11.73;100.00
44765;BME280;30484;52.382;5.260;2023-03-16T10:12:38;101429.97;;;11.89;100.00
44765;BME280;30484;52.382;5.260;2023-03-16T10:15:11;101424.09;;;11.20;100.00
44765;BME280;30484;52.382;5.260;2023-03-16T10:17:46;101424.38;;;11.74;100.00
44765;BME280;30484;52.382;5.260;2023-03-16T10:20:21;101421.47;;;11.60;100.00
44765;BME280;30484;52.382;5.260;2023-03-16T10:22:52;101423.63;;;11.71;100.00
44765;BME280;30484;52.382;5.260;2023-03-16T10:25:30;101419.06;;;11.94;100.00
44765;BME280;30484;52.382;5.260;2023-03-16T10:28:05;101414.06;;;12.05;100.00
44765;BME280;30484;52.382;5.260;2023-03-16T10:30:36;101410.34;;;12.46;100.00
44765;BME280;30484;52.382;5.260;2023-03-16T10:33:20;101397.50;;;12.52;100.00
44765;BME280;30484;52.382;5.260;2023-03-16T10:35:58;101408.09;;;12.73;100.00
44765;BME280;30484;52.382;5.260;2023-03-16T10:38:36;101405.84;;;12.46;100.00
44765;BME280;30484;52.382;5.260;2023-03-16T10:41:26;101403.91;;;13.02;100.00
44765;BME280;30484;52.382;5.260;2023-03-16T10:43:58;101389.94;;;13.30;100.00
44765;BME280;30484;52.382;5.260;2023-03-16T10:46:38;101374.41;;;13.20;100.00
44765;BME280;30484;52.382;5.260;2023-03-16T10:49:21;101380.91;;;13.49;100.00
44765;BME280;30484;52.382;5.260;2023-03-16T10:51:54;101388.28;;;13.45;100.00
44765;BME280;30484;52.382;5.260;2023-03-16T10:54:29;101385.28;;;13.34;100.00
44765;BME280;30484;52.382;5.260;2023-03-16T10:56:59;101370.75;;;13.88;100.00
44765;BME280;30484;52.382;5.260;2023-03-16T10:59:32;101363.63;;;13.71;100.00
44765;BME280;30484;52.382;5.260;2023-03-16T11:02:10;101368.50;;;14.12;100.00
44765;BME280;30484;52.382;5.260;2023-03-16T11:04:43;101364.53;;;13.38;100.00
44765;BME280;30484;52.382;5.260;2023-03-16T11:07:15;101351.78;;;13.91;100.00
44765;BME280;30484;52.382;5.260;2023-03-16T11:09:45;101360.25;;;13.51;100.00
44765;BME280;30484;52.382;5.260;2023-03-16T11:12:21;101346.31;;;13.60;100.00
44765;BME280;30484;52.382;5.260;2023-03-16T11:14:51;101366.41;;;13.69;100.00
44765;BME280;30484;52.382;5.260;2023-03-16T11:17:27;101350.72;;;14.41;100.00
44765;BME280;30484;52.382;5.260;2023-03-16T11:20:03;101349.97;;;13.91;100.00
44765;BME280;30484;52.382;5.260;2023-03-16T11:22:42;101345.47;;;14.24;100.00
44765;BME280;30484;52.382;5.260;2023-03-16T11:25:17;101332.72;;;14.11;100.00
44765;BME280;30484;52.382;5.260;2023-03-16T11:27:52;101342.81;;;14.54;100.00
44765;BME280;30484;52.382;5.260;2023-03-16T11:30:26;101329.53;;;13.73;100.00
44765;BME280;30484;52.382;5.260;2023-03-16T11:32:57;101321.56;;;13.55;100.00
44765;BME280;30484;52.382;5.260;2023-03-16T11:35:36;101323.63;;;14.14;100.00
44765;BME280;30484;52.382;5.260;2023-03-16T11:38:28;101329.50;;;14.05;100.00
44765;BME280;30484;52.382;5.260;2023-03-16T11:41:02;101333.47;;;14.76;100.00
44765;BME280;30484;52.382;5.260;2023-03-16T11:43:58;101341.66;;;14.74;100.00
44765;BME280;30484;52.382;5.260;2023-03-16T11:46:40;101339.13;;;14.25;100.00
44765;BME280;30484;52.382;5.260;2023-03-16T11:49:29;101353.25;;;14.75;100.00
44765;BME280;30484;52.382;5.260;2023-03-16T11:52:09;101348.13;;;14.40;100.00
44765;BME280;30484;52.382;5.260;2023-03-16T11:54:52;101339.59;;;14.01;100.00
44765;BME280;30484;52.382;5.260;2023-03-16T11:57:37;101328.50;;;14.54;100.00
44765;BME280;30484;52.382;5.260;2023-03-16T12:00:19;101327.59;;;14.99;100.00
44765;BME280;30484;52.382;5.260;2023-03-16T12:03:26;101320.50;;;14.06;100.00
44765;BME280;30484;52.382;5.260;2023-03-16T12:05:59;101316.44;;;14.61;100.00
44765;BME280;30484;52.382;5.260;2023-03-16T12:12:25;101316.44;;;14.45;100.00
44765;BME280;30484;52.382;5.260;2023-03-16T12:15:18;101315.47;;;14.15;100.00
44765;BME280;30484;52.382;5.260;2023-03-16T12:17:52;101331.06;;;15.59;100.00
44765;BME280;30484;52.382;5.260;2023-03-16T12:20:25;101316.28;;;14.78;100.00
44765;BME280;30484;52.382;5.260;2023-03-16T12:22:59;101309.06;;;15.24;100.00
44765;BME280;30484;52.382;5.260;2023-03-16T12:25:35;101300.38;;;15.18;100.00
44765;BME280;30484;52.382;5.260;2023-03-16T12:28:12;101312.19;;;15.45;100.00
44765;BME280;30484;52.382;5.260;2023-03-16T12:30:49;101308.50;;;15.75;100.00
44765;BME280;30484;52.382;5.260;2023-03-16T12:33:34;101285.44;;;15.56;100.00
44765;BME280;30484;52.382;5.260;2023-03-16T12:36:51;101298.75;;;15.30;100.00
44765;BME280;30484;52.382;5.260;2023-03-16T12:39:34;101281.75;;;15.71;100.00
44765;BME280;30484;52.382;5.260;2023-03-16T12:42:31;101276.13;;;16.03;100.00
44765;BME280;30484;52.382;5.260;2023-03-16T12:45:10;101275.75;;;16.22;100.00
44765;BME280;30484;52.382;5.260;2023-03-16T12:47:48;101260.97;;;15.88;100.00
44765;BME280;30484;52.382;5.260;2023-03-16T12:50:19;101244.88;;;16.54;100.00
44765;BME280;30484;52.382;5.260;2023-03-16T12:52:51;101237.31;;;16.33;100.00
44765;BME280;30484;52.382;5.260;2023-03-16T12:55:38;101242.38;;;16.51;100.00
44765;BME280;30484;52.382;5.260;2023-03-16T12:58:09;101233.97;;;16.68;100.00
44765;BME280;30484;52.382;5.260;2023-03-16T13:00:40;101216.66;;;16.19;100.00
44765;BME280;30484;52.382;5.260;2023-03-16T13:03:14;101208.75;;;16.95;100.00
44765;BME280;30484;52.382;5.260;2023-03-16T13:05:45;101196.53;;;16.51;100.00
44765;BME280;30484;52.382;5.260;2023-03-16T13:08:18;101182.19;;;17.02;100.00
44765;BME280;30484;52.382;5.260;2023-03-16T13:11:03;101198.63;;;16.99;100.00
44765;BME280;30484;52.382;5.260;2023-03-16T13:13:34;101201.25;;;16.86;100.00
44765;BME280;30484;52.382;5.260;2023-03-16T13:16:25;101192.78;;;16.92;100.00